createdAt,value
2023-03-04T00:02:14.601Z,7.12
2023-03-04T00:04:41.709Z,6.91
2023-03-04T00:07:08.918Z,6.97
2023-03-04T00:09:36.242Z,7.00
2023-03-04T00:12:03.433Z,6.95
2023-03-04T00:14:30.710Z,6.91
2023-03-04T00:16:57.841Z,6.90
2023-03-04T00:19:24.738Z,7.01
2023-03-04T00:21:52.097Z,6.88
2023-03-04T00:24:19.037Z,6.96
2023-03-04T00:26:46.799Z,6.84
2023-03-04T00:29:13.646Z,6.94
2023-03-04T00:31:40.775Z,7.09
2023-03-04T00:34:08.101Z,7.18
2023-03-04T00:36:35.216Z,7.14
2023-03-04T00:39:02.088Z,7.04
2023-03-04T00:41:29.372Z,7.03
2023-03-04T00:43:56.243Z,6.97
2023-03-04T00:46:23.422Z,7.09
2023-03-04T00:48:52.156Z,7.14
2023-03-04T00:51:19.107Z,7.12
2023-03-04T00:53:46.246Z,7.22
2023-03-04T00:56:13.353Z,7.29
2023-03-04T00:58:40.788Z,7.26
2023-03-04T01:01:08.387Z,7.24
2023-03-04T01:03:35.475Z,7.23
2023-03-04T01:06:02.624Z,7.23
2023-03-04T01:08:29.932Z,7.37
2023-03-04T01:10:57.121Z,7.30
2023-03-04T01:13:24.472Z,7.34
2023-03-04T01:15:51.875Z,7.11
2023-03-04T01:18:18.791Z,7.04
2023-03-04T01:20:46.036Z,7.25
2023-03-04T01:23:12.943Z,7.20
2023-03-04T01:25:42.452Z,7.09
2023-03-04T01:28:09.681Z,7.21
2023-03-04T01:30:37.150Z,7.05
2023-03-04T01:33:04.505Z,7.09
2023-03-04T01:35:31.929Z,7.07
2023-03-04T01:37:59.416Z,6.97
2023-03-04T01:40:26.804Z,6.91
2023-03-04T01:42:55.412Z,6.91
2023-03-04T01:45:22.982Z,6.86
2023-03-04T01:47:50.611Z,6.88
2023-03-04T01:50:33.998Z,6.89
2023-03-04T01:53:01.873Z,6.86
2023-03-04T01:55:30.029Z,6.84
2023-03-04T01:58:00.504Z,6.77
2023-03-04T02:00:31.198Z,6.99
2023-03-04T02:03:00.947Z,6.81
2023-03-04T02:05:29.107Z,6.80
2023-03-04T02:07:57.012Z,6.72
2023-03-04T02:10:24.107Z,6.79
2023-03-04T02:12:52.205Z,6.74
2023-03-04T02:15:19.716Z,6.90
2023-03-04T02:17:47.278Z,6.91
2023-03-04T02:20:33.276Z,6.89
2023-03-04T02:23:29.535Z,6.90
2023-03-04T02:26:16.124Z,6.88
2023-03-04T02:28:44.633Z,6.90
2023-03-04T02:31:48.165Z,6.76
2023-03-04T02:34:20.606Z,6.81
2023-03-04T02:36:49.133Z,6.86
2023-03-04T02:39:21.932Z,6.81
2023-03-04T02:41:53.050Z,6.73
2023-03-04T02:44:24.145Z,6.78
2023-03-04T02:46:52.523Z,6.85
2023-03-04T02:49:20.478Z,6.84
2023-03-04T02:51:51.747Z,6.81
2023-03-04T02:54:23.950Z,6.74
2023-03-04T02:56:53.318Z,6.76
2023-03-04T02:59:23.416Z,6.79
2023-03-04T03:01:52.080Z,6.85
2023-03-04T03:04:20.889Z,6.86
2023-03-04T03:06:49.290Z,6.78
2023-03-04T03:09:16.808Z,6.76
2023-03-04T03:11:43.729Z,6.82
2023-03-04T03:14:10.950Z,6.79
2023-03-04T03:16:38.830Z,6.89
2023-03-04T03:19:06.060Z,6.75
2023-03-04T03:21:34.456Z,6.68
2023-03-04T03:24:01.379Z,6.76
2023-03-04T03:26:29.205Z,6.88
2023-03-04T03:28:56.437Z,6.71
2023-03-04T03:31:23.535Z,6.60
2023-03-04T03:33:50.813Z,6.55
2023-03-04T03:36:17.878Z,6.57
2023-03-04T03:38:44.779Z,6.56
2023-03-04T03:41:11.684Z,6.74
2023-03-04T03:43:38.505Z,6.84
2023-03-04T03:46:05.680Z,6.60
2023-03-04T03:48:32.593Z,6.61
2023-03-04T03:50:59.563Z,6.60
2023-03-04T03:53:26.404Z,6.68
2023-03-04T03:55:53.404Z,6.68
2023-03-04T03:58:20.278Z,6.69
2023-03-04T04:00:47.421Z,6.68
2023-03-04T04:03:16.127Z,6.75
2023-03-04T04:05:43.236Z,6.62
2023-03-04T04:08:17.485Z,6.93
2023-03-04T04:10:44.730Z,6.72
2023-03-04T04:13:11.475Z,6.81
2023-03-04T04:15:38.896Z,6.88
2023-03-04T04:18:08.836Z,6.67
2023-03-04T04:20:35.895Z,6.86
2023-03-04T04:23:03.164Z,6.89
2023-03-04T04:25:30.302Z,6.92
2023-03-04T04:27:56.917Z,7.08
2023-03-04T04:30:23.855Z,6.87
2023-03-04T04:32:50.819Z,6.95
2023-03-04T04:35:17.871Z,7.09
2023-03-04T04:37:44.544Z,6.95
2023-03-04T04:40:11.903Z,6.91
2023-03-04T04:42:38.598Z,7.03
2023-03-04T04:45:06.002Z,6.91
2023-03-04T04:47:32.788Z,7.00
2023-03-04T04:49:59.512Z,7.01
2023-03-04T04:52:26.094Z,7.02
2023-03-04T04:54:52.816Z,6.88
2023-03-04T04:57:19.525Z,6.83
2023-03-04T04:59:46.127Z,6.91
2023-03-04T05:02:12.817Z,6.93
2023-03-04T05:04:39.465Z,6.94
2023-03-04T05:07:06.343Z,6.97
2023-03-04T05:09:32.964Z,6.71
2023-03-04T05:11:59.685Z,6.93
2023-03-04T05:14:26.564Z,6.93
2023-03-04T05:16:53.473Z,6.79
2023-03-04T05:19:21.241Z,6.86
2023-03-04T05:21:48.010Z,6.85
2023-03-04T05:24:14.606Z,6.93
2023-03-04T05:26:41.730Z,6.95
2023-03-04T05:29:08.402Z,6.75
2023-03-04T05:31:35.192Z,6.90
2023-03-04T05:34:01.892Z,7.00
2023-03-04T05:36:28.632Z,7.06
2023-03-04T05:38:55.372Z,7.12
2023-03-04T05:41:22.952Z,6.96
2023-03-04T05:43:50.291Z,7.01
2023-03-04T05:46:19.242Z,7.00
2023-03-04T05:48:46.066Z,6.96
2023-03-04T05:51:12.930Z,7.06
2023-03-04T05:53:41.551Z,6.98
2023-03-04T05:56:15.968Z,6.98
2023-03-04T05:58:43.607Z,6.87
2023-03-04T06:01:10.867Z,6.97
2023-03-04T06:03:37.761Z,6.91
2023-03-04T06:06:04.631Z,7.12
2023-03-04T06:08:31.481Z,6.98
2023-03-04T06:10:59.142Z,7.05
2023-03-04T06:13:25.930Z,6.95
2023-03-04T06:15:57.496Z,7.05
2023-03-04T06:18:24.700Z,7.05
2023-03-04T06:20:51.359Z,6.95
2023-03-04T06:23:17.979Z,6.99
2023-03-04T06:25:44.712Z,7.02
2023-03-04T06:28:11.297Z,7.12
2023-03-04T06:30:38.070Z,6.94
2023-03-04T06:33:04.740Z,6.71
2023-03-04T06:35:31.689Z,6.74
2023-03-04T06:37:58.293Z,6.68
2023-03-04T06:40:25.004Z,6.62
2023-03-04T06:42:51.637Z,6.75
2023-03-04T06:45:18.389Z,6.78
2023-03-04T06:47:45.113Z,6.75
2023-03-04T06:50:12.920Z,6.79
2023-03-04T06:52:40.229Z,6.83
2023-03-04T06:55:07.832Z,6.83
2023-03-04T06:57:34.493Z,6.79
2023-03-04T07:00:01.520Z,6.80
2023-03-04T07:02:28.201Z,6.93
2023-03-04T07:04:54.886Z,6.91
2023-03-04T07:07:21.673Z,7.02
2023-03-04T07:09:48.272Z,7.40
2023-03-04T07:12:15.116Z,7.40
2023-03-04T07:14:41.749Z,7.33
2023-03-04T07:17:08.442Z,7.52
2023-03-04T07:19:35.109Z,7.66
2023-03-04T07:22:01.797Z,7.52
2023-03-04T07:24:28.714Z,7.50
2023-03-04T07:26:55.385Z,7.25
2023-03-04T07:29:22.219Z,7.13
2023-03-04T07:31:49.740Z,7.08
2023-03-04T07:34:18.308Z,7.11
2023-03-04T07:36:45.229Z,7.39
2023-03-04T07:39:13.613Z,7.28
2023-03-04T07:41:40.821Z,7.51
2023-03-04T07:44:09.004Z,7.65
2023-03-04T07:46:35.764Z,7.72
2023-03-04T07:49:02.700Z,7.63
2023-03-04T07:51:29.564Z,7.58
2023-03-04T07:53:58.467Z,7.24
2023-03-04T07:56:27.630Z,7.63
2023-03-04T07:58:54.526Z,7.22
2023-03-04T08:01:24.307Z,7.14
2023-03-04T08:03:51.363Z,7.16
2023-03-04T08:06:19.722Z,7.35
2023-03-04T08:08:47.549Z,7.18
2023-03-04T08:11:20.066Z,7.22
2023-03-04T08:13:47.932Z,7.35
2023-03-04T08:16:17.580Z,7.13
2023-03-04T08:18:46.166Z,7.15
2023-03-04T08:21:13.739Z,7.41
2023-03-04T08:23:42.492Z,7.20
2023-03-04T08:26:14.496Z,7.42
2023-03-04T08:28:41.659Z,8.00
2023-03-04T08:31:08.431Z,7.91
2023-03-04T08:33:35.412Z,7.91
2023-03-04T08:36:02.070Z,7.97
2023-03-04T08:38:28.890Z,7.85
2023-03-04T08:40:56.744Z,7.92
2023-03-04T08:43:24.080Z,7.86
2023-03-04T08:45:51.618Z,7.53
2023-03-04T08:48:18.598Z,7.61
2023-03-04T08:50:46.207Z,7.56
2023-03-04T08:53:13.655Z,7.53
2023-03-04T08:55:41.818Z,7.79
2023-03-04T08:58:09.821Z,8.14
2023-03-04T09:00:38.433Z,8.05
2023-03-04T09:03:05.237Z,8.11
2023-03-04T09:05:32.478Z,8.03
2023-03-04T09:07:59.424Z,8.35
2023-03-04T09:10:26.212Z,8.42
2023-03-04T09:12:52.905Z,8.45
2023-03-04T09:15:20.307Z,8.31
2023-03-04T09:17:47.052Z,8.31
2023-03-04T09:20:13.927Z,8.27
2023-03-04T09:22:41.767Z,8.07
2023-03-04T09:25:13.145Z,8.12
2023-03-04T09:27:40.365Z,8.11
2023-03-04T09:30:08.239Z,8.02
2023-03-04T09:32:34.931Z,7.96
2023-03-04T09:35:01.667Z,8.18
2023-03-04T09:37:28.416Z,7.90
2023-03-04T09:39:55.166Z,8.55
2023-03-04T09:42:28.760Z,8.73
2023-03-04T09:44:55.968Z,8.65
2023-03-04T09:47:23.145Z,8.59
2023-03-04T09:49:57.619Z,8.85
2023-03-04T09:52:24.407Z,8.73
2023-03-04T09:54:57.009Z,8.75
2023-03-04T09:57:28.771Z,8.98
2023-03-04T10:00:20.647Z,8.99
2023-03-04T10:02:53.403Z,8.31
2023-03-04T10:05:22.128Z,7.99
2023-03-04T10:07:56.451Z,8.23
2023-03-04T10:10:27.729Z,7.88
2023-03-04T10:12:55.963Z,8.42
2023-03-04T10:15:40.646Z,8.56
2023-03-04T10:18:20.093Z,8.64
2023-03-04T10:20:58.390Z,8.84
2023-03-04T10:23:27.337Z,9.12
2023-03-04T10:25:54.708Z,9.19
2023-03-04T10:28:31.033Z,9.25
2023-03-04T10:31:30.064Z,8.93
2023-03-04T10:33:56.885Z,8.84
2023-03-04T10:36:29.421Z,8.75
2023-03-04T10:39:10.060Z,8.52
2023-03-04T10:41:37.117Z,8.57
2023-03-04T10:44:05.066Z,9.50
2023-03-04T10:46:32.598Z,9.81
2023-03-04T10:48:59.645Z,9.42
2023-03-04T10:51:28.809Z,9.47
2023-03-04T10:54:10.139Z,9.41
2023-03-04T10:56:45.835Z,9.12
2023-03-04T10:59:43.061Z,9.06
2023-03-04T11:02:33.283Z,8.71
2023-03-04T11:05:15.552Z,8.54
2023-03-04T11:07:55.300Z,8.50
2023-03-04T11:10:26.163Z,8.58
2023-03-04T11:12:52.829Z,8.69
2023-03-04T11:15:27.151Z,8.32
2023-03-04T11:18:03.435Z,8.63
2023-03-04T11:20:35.840Z,8.39
2023-03-04T11:23:15.422Z,8.53
2023-03-04T11:25:50.077Z,8.46
2023-03-04T11:28:19.549Z,9.47
2023-03-04T11:30:50.551Z,10.26
2023-03-04T11:33:32.253Z,10.24
2023-03-04T11:36:28.386Z,9.78
2023-03-04T11:38:55.405Z,8.94
2023-03-04T11:41:35.570Z,8.71
2023-03-04T11:44:03.793Z,8.51
2023-03-04T11:47:09.521Z,8.52
2023-03-04T11:49:54.540Z,8.34
2023-03-04T11:52:36.401Z,8.70
2023-03-04T11:55:08.979Z,8.24
2023-03-04T11:57:54.105Z,8.42
2023-03-04T12:00:41.815Z,8.86
2023-03-04T12:03:27.215Z,9.32
2023-03-04T12:06:23.088Z,9.02
2023-03-04T12:09:11.545Z,9.77
2023-03-04T12:11:56.239Z,10.05
2023-03-04T12:14:31.980Z,9.69
2023-03-04T12:17:01.840Z,9.56
2023-03-04T12:19:36.058Z,9.36
2023-03-04T12:22:22.465Z,9.44
2023-03-04T12:24:55.020Z,9.70
2023-03-04T12:27:29.791Z,9.94
2023-03-04T12:30:06.382Z,10.36
2023-03-04T12:32:55.032Z,9.80
2023-03-04T12:35:31.050Z,9.93
2023-03-04T12:38:17.110Z,9.33
2023-03-04T12:41:11.786Z,9.52
2023-03-04T12:43:45.023Z,9.38
2023-03-04T12:46:44.091Z,9.26
2023-03-04T12:49:26.051Z,9.19
2023-03-04T12:52:23.883Z,9.11
2023-03-04T12:54:52.814Z,9.20
2023-03-04T12:57:22.616Z,9.26
2023-03-04T13:00:15.142Z,9.37
2023-03-04T13:03:08.302Z,9.50
2023-03-04T13:05:47.343Z,9.39
2023-03-04T13:08:31.861Z,9.19
2023-03-04T13:11:27.192Z,9.45
2023-03-04T13:14:07.428Z,9.54
2023-03-04T13:16:43.121Z,9.23
2023-03-04T13:19:45.733Z,9.14
2023-03-04T13:22:40.453Z,9.50
2023-03-04T13:25:51.237Z,9.31
2023-03-04T13:28:22.048Z,9.17
2023-03-04T13:30:51.872Z,9.22
2023-03-04T13:33:18.559Z,9.21
2023-03-04T13:36:02.220Z,8.89
2023-03-04T13:38:32.556Z,9.32
2023-03-04T13:41:08.213Z,9.23
2023-03-04T13:43:43.017Z,9.38
2023-03-04T13:46:18.972Z,9.02
2023-03-04T13:48:53.504Z,9.12
2023-03-04T13:51:44.013Z,9.31
2023-03-04T13:54:20.178Z,9.20
2023-03-04T13:56:50.531Z,8.58
2023-03-04T13:59:17.237Z,8.72
2023-03-04T14:01:44.001Z,8.85
2023-03-04T14:04:21.220Z,9.10
2023-03-04T14:06:49.813Z,9.15
2023-03-04T14:09:28.940Z,8.89
2023-03-04T14:12:02.780Z,9.04
2023-03-04T14:14:43.102Z,9.06
2023-03-04T14:17:17.952Z,9.04
2023-03-04T14:19:46.673Z,8.80
2023-03-04T14:22:31.585Z,8.79
2023-03-04T14:25:04.693Z,8.67
2023-03-04T14:27:35.571Z,8.55
2023-03-04T14:30:06.883Z,8.35
2023-03-04T14:32:33.975Z,8.43
2023-03-04T14:35:06.614Z,8.41
2023-03-04T14:37:43.197Z,8.25
2023-03-04T14:40:20.544Z,8.08
2023-03-04T14:42:47.672Z,8.29
2023-03-04T14:45:16.571Z,8.42
2023-03-04T14:47:47.622Z,8.57
2023-03-04T14:50:17.239Z,8.44
2023-03-04T14:52:46.957Z,8.56
2023-03-04T14:55:27.601Z,8.52
2023-03-04T14:58:06.355Z,8.19
2023-03-04T15:00:39.215Z,8.45
2023-03-04T15:03:22.025Z,8.53
2023-03-04T15:05:49.787Z,8.21
2023-03-04T15:08:40.039Z,7.78
2023-03-04T15:11:08.010Z,7.77
2023-03-04T15:13:38.094Z,7.99
2023-03-04T15:16:06.036Z,8.11
2023-03-04T15:18:33.799Z,8.24
2023-03-04T15:21:03.470Z,8.68
2023-03-04T15:23:32.824Z,8.64
2023-03-04T15:26:02.468Z,8.14
2023-03-04T15:28:36.458Z,8.07
2023-03-04T15:31:04.406Z,8.19
2023-03-04T15:33:31.543Z,8.21
2023-03-04T15:36:02.721Z,8.13
2023-03-04T15:38:29.954Z,8.25
2023-03-04T15:40:58.742Z,8.35
2023-03-04T15:43:26.291Z,8.55
2023-03-04T15:45:54.439Z,8.33
2023-03-04T15:48:21.859Z,8.40
2023-03-04T15:50:59.049Z,8.13
2023-03-04T15:53:40.441Z,8.22
2023-03-04T15:56:15.683Z,8.28
2023-03-04T15:58:43.679Z,8.15
2023-03-04T16:01:16.883Z,7.91
2023-03-04T16:03:44.064Z,7.86
2023-03-04T16:06:12.858Z,7.73
2023-03-04T16:08:41.355Z,7.84
2023-03-04T16:11:14.522Z,7.63
2023-03-04T16:13:41.458Z,7.76
2023-03-04T16:16:13.021Z,7.88
2023-03-04T16:18:41.177Z,7.69
2023-03-04T16:21:19.368Z,7.79
2023-03-04T16:23:48.452Z,7.76
2023-03-04T16:26:18.522Z,7.86
2023-03-04T16:28:45.352Z,7.67
2023-03-04T16:31:14.119Z,7.82
2023-03-04T16:33:41.526Z,7.61
2023-03-04T16:36:19.281Z,7.65
2023-03-04T16:38:46.684Z,7.38
2023-03-04T16:41:15.676Z,7.37
2023-03-04T16:43:43.870Z,7.57
2023-03-04T16:46:12.558Z,7.64
2023-03-04T16:48:40.289Z,7.64
2023-03-04T16:51:22.546Z,7.52
2023-03-04T16:53:56.589Z,7.31
2023-03-04T16:56:24.008Z,7.28
2023-03-04T16:58:51.611Z,7.30
2023-03-04T17:01:27.472Z,7.47
2023-03-04T17:03:56.119Z,7.39
2023-03-04T17:06:24.207Z,7.38
2023-03-04T17:08:51.498Z,7.29
2023-03-04T17:11:24.063Z,7.35
2023-03-04T17:13:52.451Z,7.22
2023-03-04T17:16:20.424Z,7.30
2023-03-04T17:18:47.729Z,7.30
2023-03-04T17:21:18.079Z,7.19
2023-03-04T17:23:45.681Z,7.15
2023-03-04T17:26:13.471Z,7.11
2023-03-04T17:28:40.370Z,7.10
2023-03-04T17:31:12.033Z,7.14
2023-03-04T17:33:39.463Z,7.16
2023-03-04T17:36:07.756Z,7.23
2023-03-04T17:38:35.958Z,7.12
2023-03-04T17:41:04.669Z,7.13
2023-03-04T17:43:31.814Z,7.06
2023-03-04T17:46:10.878Z,7.19
2023-03-04T17:48:38.263Z,7.12
2023-03-04T17:51:05.347Z,7.09
2023-03-04T17:53:33.259Z,7.21
2023-03-04T17:56:01.814Z,7.15
2023-03-04T17:58:30.211Z,7.14
2023-03-04T18:01:04.858Z,7.15
2023-03-04T18:03:31.933Z,7.16
2023-03-04T18:05:59.020Z,7.14
2023-03-04T18:08:26.004Z,7.17
2023-03-04T18:10:54.040Z,7.19
2023-03-04T18:13:21.089Z,7.02
2023-03-04T18:15:48.183Z,6.98
2023-03-04T18:18:15.271Z,6.83
2023-03-04T18:20:42.893Z,6.76
2023-03-04T18:23:09.837Z,6.72
2023-03-04T18:25:36.955Z,6.55
2023-03-04T18:28:04.412Z,6.47
2023-03-04T18:30:32.141Z,6.45
2023-03-04T18:33:02.984Z,6.45
2023-03-04T18:35:30.162Z,6.24
2023-03-04T18:37:57.106Z,6.32
2023-03-04T18:40:24.471Z,6.23
2023-03-04T18:42:51.850Z,6.00
2023-03-04T18:45:19.112Z,5.97
2023-03-04T18:47:49.603Z,6.08
2023-03-04T18:50:17.843Z,6.01
2023-03-04T18:52:45.117Z,6.00
2023-03-04T18:55:13.385Z,6.06
2023-03-04T18:57:43.673Z,5.93
2023-03-04T19:00:11.490Z,5.92
2023-03-04T19:02:43.200Z,5.87
2023-03-04T19:05:14.235Z,5.84
2023-03-04T19:07:41.365Z,5.68
2023-03-04T19:10:09.106Z,5.63
2023-03-04T19:12:36.622Z,5.52
2023-03-04T19:15:05.925Z,5.62
2023-03-04T19:17:33.193Z,5.61
2023-03-04T19:20:00.293Z,5.78
2023-03-04T19:22:27.446Z,5.91
2023-03-04T19:24:54.804Z,5.96
2023-03-04T19:27:21.989Z,5.94
2023-03-04T19:29:49.540Z,5.91
2023-03-04T19:32:20.076Z,5.79
2023-03-04T19:34:48.047Z,5.69
2023-03-04T19:37:15.992Z,5.73
2023-03-04T19:39:46.369Z,5.87
2023-03-04T19:42:13.796Z,5.85
2023-03-04T19:44:42.637Z,5.86
2023-03-04T19:47:11.769Z,5.95
2023-03-04T19:49:38.725Z,5.88
2023-03-04T19:52:05.937Z,5.81
2023-03-04T19:54:33.637Z,5.68
2023-03-04T19:57:01.092Z,5.73
2023-03-04T19:59:28.057Z,5.72
2023-03-04T20:01:55.604Z,5.78
2023-03-04T20:04:22.704Z,5.85
2023-03-04T20:06:51.555Z,5.73
2023-03-04T20:09:19.248Z,5.84
2023-03-04T20:11:59.717Z,5.85
2023-03-04T20:14:27.629Z,5.74
2023-03-04T20:16:59.024Z,5.72
2023-03-04T20:19:26.200Z,5.84
2023-03-04T20:21:53.590Z,5.90
2023-03-04T20:24:23.449Z,5.72
2023-03-04T20:26:51.312Z,5.78
2023-03-04T20:29:18.453Z,5.90
2023-03-04T20:31:46.710Z,5.56
2023-03-04T20:34:14.089Z,5.58
2023-03-04T20:36:41.436Z,5.59
2023-03-04T20:39:25.756Z,5.55
2023-03-04T20:41:57.166Z,5.26
2023-03-04T20:44:24.846Z,5.22
2023-03-04T20:46:52.507Z,5.28
2023-03-04T20:49:24.132Z,5.29
2023-03-04T20:52:08.527Z,5.26
2023-03-04T20:54:37.410Z,5.20
2023-03-04T20:57:07.043Z,5.23
2023-03-04T20:59:35.113Z,5.18
2023-03-04T21:02:02.771Z,5.22
2023-03-04T21:04:32.525Z,5.20
2023-03-04T21:07:01.681Z,5.16
2023-03-04T21:09:28.987Z,5.18
2023-03-04T21:11:56.106Z,5.06
2023-03-04T21:14:24.356Z,4.95
2023-03-04T21:16:54.715Z,4.87
2023-03-04T21:19:24.242Z,4.77
2023-03-04T21:21:52.435Z,4.72
2023-03-04T21:24:22.391Z,4.63
2023-03-04T21:26:50.059Z,4.69
2023-03-04T21:29:20.268Z,4.84
2023-03-04T21:31:50.884Z,4.91
2023-03-04T21:34:21.096Z,4.95
2023-03-04T21:36:48.816Z,4.98
2023-03-04T21:39:19.477Z,4.90
2023-03-04T21:41:46.844Z,4.88
2023-03-04T21:44:22.981Z,5.07
2023-03-04T21:46:56.707Z,5.06
2023-03-04T21:49:23.926Z,5.12
2023-03-04T21:51:51.230Z,4.98
2023-03-04T21:54:18.398Z,5.09
2023-03-04T21:56:45.489Z,5.05
2023-03-04T21:59:14.536Z,5.15
2023-03-04T22:01:42.041Z,5.18
2023-03-04T22:04:09.151Z,5.17
2023-03-04T22:06:36.322Z,5.01
2023-03-04T22:09:04.390Z,5.03
2023-03-04T22:11:32.045Z,5.00
2023-03-04T22:14:03.223Z,5.12
2023-03-04T22:16:32.800Z,5.16
2023-03-04T22:19:00.927Z,5.13
2023-03-04T22:21:28.188Z,5.16
2023-03-04T22:23:55.171Z,5.11
2023-03-04T22:26:29.948Z,5.16
2023-03-04T22:28:56.993Z,5.03
2023-03-04T22:31:30.452Z,4.94
2023-03-04T22:34:09.600Z,4.74
2023-03-04T22:36:39.419Z,4.60
2023-03-04T22:39:08.457Z,4.45
2023-03-04T22:41:35.974Z,4.33
2023-03-04T22:44:03.086Z,4.15
2023-03-04T22:46:32.141Z,4.09
2023-03-04T22:49:01.930Z,4.02
2023-03-04T22:51:29.224Z,4.01
2023-03-04T22:53:58.313Z,4.05
2023-03-04T22:56:25.461Z,4.06
2023-03-04T22:58:53.199Z,4.05
2023-03-04T23:01:20.833Z,4.03
2023-03-04T23:03:49.063Z,4.06
2023-03-04T23:06:21.712Z,4.01
2023-03-04T23:08:50.636Z,4.08
2023-03-04T23:11:21.205Z,4.11
2023-03-04T23:13:49.425Z,4.03
2023-03-04T23:16:17.258Z,4.12
2023-03-04T23:18:46.783Z,4.11
2023-03-04T23:21:19.606Z,4.14
2023-03-04T23:23:47.052Z,4.12
2023-03-04T23:26:27.950Z,4.09
2023-03-04T23:28:57.314Z,4.05
2023-03-04T23:31:25.782Z,4.06
2023-03-04T23:33:57.603Z,4.03
2023-03-04T23:36:26.868Z,4.03
2023-03-04T23:38:54.350Z,3.84
2023-03-04T23:41:23.387Z,3.96
2023-03-04T23:43:53.159Z,4.04
2023-03-04T23:46:20.004Z,4.18
2023-03-04T23:48:47.822Z,4.29
2023-03-04T23:51:17.936Z,4.30
2023-03-04T23:53:45.897Z,4.36
2023-03-04T23:56:24.140Z,4.47
2023-03-04T23:58:51.788Z,4.51
